Faaborg, Denmark
Current Conditions -  °F | °C
As of 12:20 PM on Sunday 23 Nov 2014 (Local Time) from ETGG Reporting Station
Broken Clouds Broken Clouds  
Wind Chill: 41°   Ceiling: 9000
Heat Index: 45°   Visibility: 4mi
Dew Point: 41°   Wind: 7mph
Humidity: 87%   Direction: 140°SE
Pressure: 30.09"   Gusts: NA
Location:  55.1°N, 10.24°E
Report Text: ETGG 231120Z 14006KT 6000 BKN090 BKN130 07/05 Q1019 WHT
Loading
Personal Weather Stations






























Interactive Weather Map New forecast layout! Learn more

10-Day Weather Forecast

Advertisements
Track Severe Weather on mobile